Flight Track Log - Related Links

Times and Time Zones

All times are in EDT time to prevent confusion due to time zone crossing. See the N351EF flight status page for this flight to view local times or setup timezone preferences in your user account.

Time Position Orientation Groundspeed Altitude Reporting Facility
EDT Latitude Longitude Course Direction KTS MPH feet Rate Location/Type
Fri 04:18:51 PM 38.1819 -122.3022 65° Northeast 192 221 1,600  Level Oakland Center
Fri 04:19:52 PM 38.1953 -122.3644 285° West 229 264 5,300 3,122 Climbing Oakland Center
Fri 04:20:54 PM 38.2469 -122.4058 328° Northwest 236 272 8,000 2,226 Climbing Oakland Center
Fri 04:21:56 PM 38.3361 -122.4086 359° North 265 305 9,900 2,244 Climbing Oakland Center
Fri 04:22:00 PM 38.5192 -121.4747 63° Northeast  Level Estimated
Fri 04:22:57 PM 38.4194 -122.3972 North 293 337 12,600  Level Oakland Center
Fri 04:23:00 PM 38.5696 -121.3397 63° Northeast  Level Estimated
Fri 04:23:59 PM 38.5108 -122.3583 18° North 342 394 13,000  Level Oakland Center
Fri 04:24:00 PM 38.6200 -121.2046 65° Northeast  Level Estimated
Fri 04:25:01 PM 38.5564 -122.2428 63° Northeast 350 403 15,700  Level Oakland Center
Fri 04:26:02 PM 38.5944 -122.1294 67° East 344 396 17,800 2,341 Climbing Oakland Center
Fri 04:27:04 PM 38.6400 -122.0139 63° Northeast 354 407 20,500 2,177 Climbing Oakland Center
Fri 04:28:06 PM 38.6858 -121.8950 64° Northeast 365 420 22,300 1,707 Climbing Oakland Center
Fri 04:29:07 PM 38.7347 -121.7717 63° Northeast 379 436 24,000 1,805 Climbing Oakland Center
Fri 04:30:09 PM 38.7869 -121.6444 62° Northeast 394 453 26,000 2,032 Climbing Oakland Center
Fri 04:31:11 PM 38.8500 -121.4911 62° Northeast 400 460 28,200 1,707 Climbing Oakland Center
Fri 04:32:12 PM 38.9036 -121.3603 62° Northeast 407 468 29,500 1,317 Climbing Oakland Center
Fri 04:33:14 PM 38.9578 -121.2244 63° Northeast 421 484 30,900 1,306 Climbing Oakland Center
Fri 04:34:16 PM 39.0131 -121.0869 63° Northeast 428 493 32,200 1,171 Climbing Oakland Center
Fri 04:35:17 PM 39.0675 -120.9486 63° Northeast 432 497 33,300 1,122 Climbing Oakland Center
Fri 04:36:19 PM 39.1242 -120.8094 62° Northeast 437 503 34,500 823 Climbing Oakland Center
Fri 04:37:21 PM 39.1786 -120.6689 63° Northeast 438 504 35,000 339 Climbing Oakland Center
Fri 04:38:23 PM 39.2364 -120.5233 63° Northeast 452 520 35,200 537 Climbing Oakland Center
Fri 04:39:24 PM 39.2933 -120.3756 63° Northeast 459 528 36,100 878 Climbing Oakland Center
Fri 04:40:26 PM 39.3611 -120.2022 63° Northeast 453 521 37,000 726 Climbing Oakland Center
Fri 04:41:28 PM 39.4200 -120.0583 62° Northeast 454 522 37,600 537 Climbing Oakland Center
Fri 04:42:29 PM 39.4731 -119.9169 64° Northeast 448 516 38,100 537 Climbing Oakland Center
Fri 04:43:31 PM 39.5286 -119.7722 64° Northeast 446 513 38,700 581 Climbing Oakland Center
Fri 04:44:33 PM 39.5839 -119.6286 63° Northeast 446 513 39,300 585 Climbing Oakland Center
Fri 04:45:34 PM 39.6369 -119.4875 64° Northeast 439 505 39,900 537 Climbing Oakland Center
Fri 04:46:36 PM 39.6925 -119.3447 63° Northeast 446 513 40,400 435 Climbing Oakland Center
Fri 04:47:38 PM 39.7442 -119.2056 64° Northeast 429 494 40,800 293 Climbing Oakland Center
Fri 04:48:39 PM 39.7964 -119.0647 64° Northeast 428 493 41,000 98 Climbing Oakland Center
Fri 04:49:41 PM 39.8600 -118.8953 64° Northeast 432 497 41,000  Level Oakland Center
Fri 04:50:43 PM 39.9139 -118.7506 64° Northeast 439 505 41,000  Level Oakland Center
Fri 04:51:45 PM 39.9667 -118.6042 65° Northeast 442 509 41,000  Level Oakland Center
Fri 04:52:46 PM 40.0206 -118.4569 64° Northeast 445 512 41,000  Level Oakland Center
Fri 04:53:48 PM 40.0744 -118.3083 65° Northeast 450 518 41,000  Level Oakland Center
Fri 04:54:50 PM 40.1281 -118.1614 64° Northeast 449 517 41,000  Level Oakland Center
Fri 04:55:51 PM 40.1814 -118.0128 65° Northeast 450 518 41,000  Level Oakland Center
Fri 04:56:53 PM 40.2339 -117.8664 65° Northeast 445 512 41,000  Level Oakland Center
Fri 04:57:41 PM 40.2758 -117.7506 65° Northeast 443 510 41,000  Level Salt Lake Center
Fri 04:58:43 PM 40.3342 -117.5883 65° Northeast 440 506 41,000  Level Salt Lake Center
Fri 04:59:45 PM 40.3847 -117.4481 65° Northeast 443 510 41,000  Level Salt Lake Center
Fri 05:00:47 PM 40.4433 -117.2828 65° Northeast 446 513 41,000  Level Salt Lake Center
Fri 05:01:49 PM 40.4933 -117.1406 65° Northeast 445 512 41,000  Level Salt Lake Center
Fri 05:02:51 PM 40.5447 -116.9975 65° Northeast 446 513 41,000  Level Salt Lake Center
Fri 05:03:53 PM 40.5981 -116.8272 68° East 444 511 41,000  Level Salt Lake Center
Fri 05:04:55 PM 40.6406 -116.6817 69° East 442 509 41,000  Level Salt Lake Center
Fri 05:05:57 PM 40.6900 -116.5111 69° East 444 511 41,000  Level Salt Lake Center
Fri 05:06:59 PM 40.7342 -116.3661 68° East 444 511 41,000  Level Salt Lake Center
Fri 05:08:01 PM 40.7825 -116.1953 69° East 446 513 41,000  Level Salt Lake Center
Fri 05:09:03 PM 40.8244 -116.0492 69° East 447 514 41,000  Level Salt Lake Center
Fri 05:10:05 PM 40.8678 -115.9033 69° East 445 512 41,000  Level Salt Lake Center
Fri 05:11:06 PM 40.9147 -115.7297 70° East 447 514 41,000  Level Salt Lake Center
Fri 05:12:08 PM 40.9564 -115.5831 69° East 447 514 41,000  Level Salt Lake Center
Fri 05:13:10 PM 41.0047 -115.4094 70° East 449 517 41,000  Level Salt Lake Center
Fri 05:14:12 PM 41.0481 -115.2614 69° East 450 518 41,000  Level Salt Lake Center
Fri 05:15:14 PM 41.0953 -115.0889 70° East 447 514 41,000  Level Salt Lake Center
Fri 05:16:16 PM 41.1372 -114.9408 69° East 449 517 41,000  Level Salt Lake Center
Fri 05:17:18 PM 41.1803 -114.7817 70° East 448 516 41,000  Level Salt Lake Center
Fri 05:18:20 PM 41.2222 -114.6267 70° East 448 516 41,000  Level Salt Lake Center
Fri 05:19:21 PM 41.2653 -114.4711 70° East 449 517 41,000  Level Salt Lake Center
Fri 05:20:23 PM 41.3069 -114.3150 70° East 449 517 41,000  Level Salt Lake Center
Fri 05:21:25 PM 41.3583 -114.1278 70° East 449 517 41,000  Level Salt Lake Center
Fri 05:22:27 PM 41.3986 -113.9711 71° East 449 517 41,000  Level Salt Lake Center
Fri 05:23:29 PM 41.4417 -113.8156 70° East 448 516 41,000  Level Salt Lake Center
Fri 05:24:31 PM 41.4828 -113.6581 71° East 449 517 41,000  Level Salt Lake Center
Fri 05:25:33 PM 41.5231 -113.5014 71° East 448 516 41,000  Level Salt Lake Center
Fri 05:26:47 PM 41.5722 -113.3136 71° East 448 516 41,000  Level Salt Lake Center
Fri 05:27:49 PM 41.6231 -113.1242 70° East 450 518 41,000  Level Salt Lake Center
Fri 05:28:51 PM 41.6636 -112.9639 71° East 455 524 41,000  Level Salt Lake Center
Fri 05:29:53 PM 41.7028 -112.8067 72° East 449 517 41,000  Level Salt Lake Center
Fri 05:30:55 PM 41.7411 -112.6503 72° East 443 510 41,000  Level Salt Lake Center
Fri 05:31:57 PM 41.7806 -112.4931 71° East 443 510 41,000  Level Salt Lake Center
Fri 05:32:59 PM 41.8203 -112.3358 71° East 445 512 41,000  Level Salt Lake Center
Fri 05:34:01 PM 41.8581 -112.1803 72° East 441 507 41,000  Level Salt Lake Center
Fri 05:35:03 PM 41.9050 -111.9928 71° East 441 507 41,000  Level Salt Lake Center
Fri 05:36:05 PM 41.9436 -111.8358 72° East 444 511 41,000  Level Salt Lake Center
Fri 05:37:08 PM 41.9811 -111.6797 72° East 440 506 41,000  Level Salt Lake Center
Fri 05:38:09 PM 42.0194 -111.5256 71° East 437 503 41,000  Level Salt Lake Center
Fri 05:39:11 PM 42.0564 -111.3694 72° East 438 504 41,000  Level Salt Lake Center
Fri 05:40:13 PM 42.0933 -111.2119 72° East 441 507 41,000  Level Salt Lake Center
Fri 05:41:15 PM 42.1306 -111.0564 72° East 438 504 41,000  Level Salt Lake Center
Fri 05:42:17 PM 42.1736 -110.8747 72° East 445 512 41,000  Level Salt Lake Center
Fri 05:43:19 PM 42.2144 -110.6975 73° East 444 511 41,000  Level Salt Lake Center
Fri 05:44:20 PM 42.2494 -110.5453 73° East 444 511 41,000  Level Salt Lake Center
Fri 05:45:22 PM 42.2850 -110.3908 73° East 448 516 41,000  Level Salt Lake Center
Fri 05:46:24 PM 42.3256 -110.2114 73° East 449 517 41,000  Level Salt Lake Center
Fri 05:47:26 PM 42.3600 -110.0556 73° East 451 519 41,000  Level Salt Lake Center
Fri 05:48:28 PM 42.4008 -109.8744 73° East 450 518 41,000  Level Salt Lake Center
Fri 05:49:30 PM 42.4361 -109.7192 73° East 451 519 41,000  Level Salt Lake Center
Fri 05:50:32 PM 42.4753 -109.5375 74° East 450 518 41,000  Level Salt Lake Center
Fri 05:51:34 PM 42.5103 -109.3811 73° East 451 519 41,000  Level Salt Lake Center
Fri 05:52:35 PM 42.5444 -109.2239 74° East 453 521 41,000  Level Salt Lake Center
Fri 05:53:37 PM 42.5847 -109.0417 73° East 451 519 41,000  Level Salt Lake Center
Fri 05:54:39 PM 42.6175 -108.8828 74° East 454 522 41,000  Level Salt Lake Center
Fri 05:55:41 PM 42.6572 -108.6992 74° East 454 522 41,000  Level Salt Lake Center
Fri 05:56:42 PM 42.6897 -108.5408 74° East 454 522 41,000  Level Salt Lake Center
Fri 05:57:44 PM 42.7281 -108.3561 74° East 454 522 41,000  Level Salt Lake Center
Fri 05:58:46 PM 42.7611 -108.1981 74° East 455 524 41,000  Level Salt Lake Center
Fri 05:59:48 PM 42.7933 -108.0381 75° East 456 525 41,000  Level Salt Lake Center
Fri 06:00:50 PM 42.8306 -107.8519 75° East 456 525 41,000  Level Salt Lake Center
Fri 06:01:51 PM 42.8625 -107.6939 75° East 454 522 41,000  Level Salt Lake Center
Fri 06:02:53 PM 42.9000 -107.5089 74° East 453 521 41,000  Level Salt Lake Center
Fri 06:03:55 PM 42.9297 -107.3522 75° East 447 514 41,000  Level Salt Lake Center
Fri 06:04:56 PM 42.9667 -107.1664 75° East 450 518 41,000  Level Salt Lake Center
Fri 06:05:58 PM 42.9986 -107.0025 75° East 448 516 41,000  Level Salt Lake Center
Fri 06:07:00 PM 43.0303 -106.8431 75° East 448 516 41,000  Level Salt Lake Center
Fri 06:08:02 PM 43.0644 -106.6600 76° East 447 514 41,000  Level Salt Lake Center
Fri 06:09:04 PM 43.0953 -106.5033 75° East 446 513 41,000  Level Salt Lake Center
Fri 06:10:05 PM 43.1239 -106.3442 76° East 450 518 41,000  Level Salt Lake Center
Fri 06:11:07 PM 43.1603 -106.1583 75° East 452 520 41,000  Level Salt Lake Center
Fri 06:12:09 PM 43.1886 -105.9983 76° East 452 520 41,000  Level Salt Lake Center
Fri 06:13:11 PM 43.2225 -105.8133 76° East 448 516 41,000  Level Salt Lake Center
Fri 06:14:34 PM 43.2608 -105.5994 76° East 450 518 41,000  Level Denver Center
Fri 06:15:48 PM 43.2953 -105.4117 76° East 454 522 41,000  Level Denver Center
Fri 06:16:51 PM 43.3325 -105.1975 76° East 452 520 41,000  Level Denver Center
Fri 06:17:53 PM 43.3606 -105.0372 76° East 451 519 41,000  Level Denver Center
Fri 06:18:55 PM 43.3883 -104.8772 77° East 449 517 41,000  Level Denver Center
Fri 06:19:56 PM 43.4211 -104.6881 77° East 452 520 41,000  Level Denver Center
Fri 06:20:58 PM 43.4483 -104.5269 77° East 451 519 41,000  Level Denver Center
Fri 06:22:00 PM 43.4803 -104.3361 77° East 455 524 41,000  Level Denver Center
Fri 06:23:02 PM 43.5072 -104.1753 77° East 452 520 41,000  Level Denver Center
Fri 06:24:04 PM 43.5389 -103.9856 77° East 453 521 41,000  Level Denver Center
Fri 06:25:06 PM 43.5656 -103.8222 77° East 455 524 41,000  Level Denver Center
Fri 06:26:08 PM 43.5875 -103.6864 77° East 456 525 41,000  Level Denver Center
Fri 06:27:10 PM 43.6219 -103.4683 78° East 457 526 41,000  Level Denver Center
Fri 06:28:12 PM 43.6481 -103.3053 77° East 456 525 41,000  Level Denver Center
Fri 06:29:14 PM 43.6786 -103.1117 78° East 460 529 41,000  Level Denver Center
Fri 06:30:16 PM 43.7042 -102.9469 78° East 459 528 41,000  Level Denver Center
Fri 06:31:18 PM 43.7336 -102.7511 78° East 463 533 41,000  Level Denver Center
Fri 06:32:19 PM 43.7592 -102.5842 78° East 464 534 41,000  Level Denver Center
Fri 06:33:21 PM 43.7869 -102.3875 79° East 465 535 41,000  Level Denver Center
Fri 06:34:23 PM 43.8128 -102.2208 78° East 464 534 41,000  Level Denver Center
Fri 06:35:25 PM 43.8394 -102.0394 78° East 468 539 41,000  Level Denver Center
Fri 06:36:27 PM 43.8644 -101.8625 79° East 469 540 41,000  Level Denver Center
Fri 06:37:29 PM 43.8897 -101.6856 79° East 470 541 41,000  Level Denver Center
Fri 06:38:31 PM 43.9203 -101.4703 79° East 475 547 41,000  Level Denver Center
Fri 06:39:11 PM 43.9367 -101.3653 78° East 473 544 41,000  Level Minneapolis Center
Fri 06:40:13 PM 43.9614 -101.1856 79° East 474 545 41,000  Level Minneapolis Center
Fri 06:41:15 PM 43.9858 -101.0056 79° East 475 547 41,000  Level Minneapolis Center
Fri 06:42:17 PM 44.0100 -100.8267 79° East 475 547 41,000  Level Minneapolis Center
Fri 06:43:19 PM 44.0383 -100.6106 80° East 475 547 41,000  Level Minneapolis Center
Fri 06:44:21 PM 44.0614 -100.4292 80° East 478 550 41,000  Level Minneapolis Center
Fri 06:45:23 PM 44.0850 -100.2500 80° East 475 547 41,000  Level Minneapolis Center
Fri 06:46:25 PM 44.1083 -100.0706 80° East 474 545 41,000  Level Minneapolis Center
Fri 06:47:27 PM 44.1306 -99.8894 80° East 477 549 41,000  Level Minneapolis Center
Fri 06:48:29 PM 44.1536 -99.7100 80° East 475 547 41,000  Level Minneapolis Center
Fri 06:49:31 PM 44.1758 -99.5294 80° East 476 548 41,000  Level Minneapolis Center
Fri 06:50:33 PM 44.2019 -99.3136 80° East 474 545 41,000  Level Minneapolis Center
Fri 06:51:35 PM 44.2231 -99.1344 81° East 473 544 41,000  Level Minneapolis Center
Fri 06:52:37 PM 44.2439 -98.9525 81° East 475 547 41,000  Level Minneapolis Center
Fri 06:53:40 PM 44.2656 -98.7711 80° East 476 548 41,000  Level Minneapolis Center
Fri 06:54:42 PM 44.2911 -98.5531 81° East 477 549 41,000  Level Minneapolis Center
Fri 06:55:44 PM 44.3108 -98.3711 81° East 476 548 41,000  Level Minneapolis Center
Fri 06:56:46 PM 44.3308 -98.2033 80° East 480 552 41,000  Level Minneapolis Center
Fri 06:57:48 PM 44.3550 -97.9828 81° East 480 552 41,000  Level Minneapolis Center
Fri 06:58:50 PM 44.3739 -97.7981 82° East 481 554 41,000  Level Minneapolis Center
Fri 06:59:52 PM 44.3925 -97.6133 82° East 481 554 41,000  Level Minneapolis Center
Fri 07:00:54 PM 44.4128 -97.4300 81° East 479 551 41,000  Level Minneapolis Center
Fri 07:01:56 PM 44.4322 -97.2467 81° East 477 549 41,000  Level Minneapolis Center
Fri 07:02:58 PM 44.4458 -97.0986 83° East 478 550 41,000  Level Minneapolis Center
Fri 07:04:00 PM 44.4708 -96.8417 82° East 476 548 41,000  Level Minneapolis Center
Fri 07:05:02 PM 44.4892 -96.6594 82° East 472 543 41,000  Level Minneapolis Center
Fri 07:06:16 PM 44.5069 -96.4767 82° East 472 543 41,000  Level Minneapolis Center
Fri 07:07:19 PM 44.5286 -96.2567 82° East 471 542 41,000  Level Minneapolis Center
Fri 07:08:21 PM 44.5442 -96.0722 83° East 472 543 41,000  Level Minneapolis Center
Fri 07:09:23 PM 44.5608 -95.8883 83° East 472 543 41,000  Level Minneapolis Center
Fri 07:10:25 PM 44.5764 -95.7044 83° East 474 545 41,000  Level Minneapolis Center
Fri 07:11:27 PM 44.5922 -95.5211 83° East 473 544 41,000  Level Minneapolis Center
Fri 07:12:29 PM 44.6111 -95.3019 83° East 472 543 41,000  Level Minneapolis Center
Fri 07:13:31 PM 44.6264 -95.1181 83° East 474 545 41,000  Level Minneapolis Center
Fri 07:14:33 PM 44.6419 -94.9353 83° East 473 544 41,000 -192 Level Minneapolis Center
Fri 07:15:36 PM 44.6558 -94.7522 84° East 473 544 40,600 -1,392 Descending Minneapolis Center
Fri 07:16:38 PM 44.6694 -94.5514 84° East 473 544 38,100 -2,129 Descending Minneapolis Center
Fri 07:17:40 PM 44.6842 -94.3681 83° East 474 545 36,200 -1,984 Descending Minneapolis Center
Fri 07:18:42 PM 44.6978 -94.1881 84° East 466 536 34,000 -2,323 Descending Minneapolis Center
Fri 07:19:44 PM 44.7117 -94.0069 84° East 468 539 31,400 -2,468 Descending Minneapolis Center
Fri 07:20:46 PM 44.7244 -93.8283 84° East 463 533 28,900 -2,661 Descending Minneapolis Center
Fri 07:21:48 PM 44.7397 -93.6181 84° East 453 521 25,900 -2,371 Descending Minneapolis Center
Fri 07:22:50 PM 44.7519 -93.4403 84° East 456 525 24,000 -919 Descending Minneapolis Center
Fri 07:23:52 PM 44.7628 -93.2822 84° East 453 521 24,000 -1,016 Level Minneapolis Center
Fri 07:24:54 PM 44.7758 -93.0747 85° East 451 519 21,900 -2,226 Descending Minneapolis Center
Fri 07:25:56 PM 44.7858 -92.9081 85° East 439 505 19,400 -2,419 Descending Minneapolis Center
Fri 07:26:58 PM 44.7961 -92.7436 85° East 428 493 16,900 -2,400 Descending Minneapolis Center
Fri 07:28:01 PM 44.8050 -92.5942 85° East 388 447 14,400 -2,256 Descending Minneapolis Center
Fri 07:29:03 PM 44.8133 -92.4539 85° East 364 419 12,200 -1,210 Descending Minneapolis Center
Fri 07:30:05 PM 44.8222 -92.2989 85° East 334 384 11,900 -871 Descending Minneapolis Center
Fri 07:31:07 PM 44.8292 -92.1731 86° East 323 372 10,400 -1,694 Descending Minneapolis Center
Fri 07:32:09 PM 44.8356 -92.0608 85° East 291 335 8,400 -2,032 Descending Minneapolis Center
Fri 07:33:11 PM 44.8417 -91.9522 85° East 279 321 6,200 -1,935 Descending Minneapolis Center
Fri 07:34:13 PM 44.8464 -91.8497 86° East 266 306 4,400 -1,548 Descending Minneapolis Center
Fri 07:35:15 PM 44.8458 -91.7492 90° East 261 300 3,000 -677 Descending Minneapolis Center
Fri 07:36:17 PM 44.8336 -91.6486 100° East 254 292 3,000  Level Minneapolis Center
Fri 07:38:00 PM 44.8500 -91.4833 90° East  Level FlightAware Approximate
Fri 07:45:00 PM 44.8658 -91.4843 90° East  Level Estimated
Fri 07:46:00 PM 44.8658 -91.4843 90° East  Level Estimated
Fri 07:47:00 PM 44.8658 -91.4843 90° East  Level Estimated
Fri 07:48:00 PM 44.8658 -91.4843 90° East  Level Estimated

Login

Don't have an account? Register now (free) for customized features, flight alerts, and more!